Orrville, OH

1:29 AM EDT on April 21, 2015 (GMT -0400)
OHDOT | | Change Station
CLOSE
Current Station
Personal Weather Station
Location: Orrville, OH
Elevation: 1040 ft
Nearby Weather Stations

Elev 1040 ft 40.80 °N, 81.76 °W | Updated 38 minutes ago

Clear
Clear
47 °F
Feels Like 45 °F
N
4
Wind Variable Wind from West
Gusts 11.0 mph

Today
High -- | Low -- °F
--% Chance of Precip.
Yesterday
High -- | Low -- °F
Precip. -- in
6:39 AM 8:12 PM
Waxing Crescent, 8% visible
Pressure 29.69 in
Visibility 10.0 miles
Clouds Few 7000 ft
Windchill 45 °F
Dew Point 36 °F
Humidity 65%
Rainfall in
Snow Depth Not available.
UV 0 out of 12
Pollen 7.20 out of 12
Air Quality Not available.
Flu Activity Regional
METAR KBJJ 210456Z AUTO 26015KT 10SM -RA FEW070 07/02 A2968 RMK AO2 SLP052 P0000 T00720017 401780072 TSNO

More Conditions Fewer Conditions

Pressure 29.69 in
Visibility 10.0 miles
Clouds Few 7000 ft
Windchill 45 °F
Dew Point 36 °F
Humidity 65%
Rainfall in
Snow Depth Not available.
UV 0 out of 12
Pollen 7.20 out of 12
Air Quality Not available.
Flu Activity Regional
METAR KBJJ 210456Z AUTO 26015KT 10SM -RA FEW070 07/02 A2968 RMK AO2 SLP052 P0000 T00720017 401780072 TSNO

More Conditions Fewer Conditions

10-Day Weather Forecast

Almanac

Astronomy

Apr. 21, 2015 Rise Set
Actual Time
Civil Twilight
Nautical Twilight
Astronomical Twilight
Moon
Length of Visible Light
Length of Day
Tomorrow will be .
, % of the Moon is Illuminated

Today's Extremes

State Highs State Lows

Community

WunderPhotos

Upload Photos

1,815,316 photos uploaded!

WunderBlogs® & News

Nearby

Air Quality

  Air Quality AQ Index Pollutant
Not available.

Snow Depth

Station Depth Elevation

Earthquake Activity

City Distance Mag. Time & Date
Minimum magnitude displayed is 2.5.

Coastal Water Temperatures

Place Temperature

Stations

Nearby Weather Stations

Station Location Temp. Windchill Dew Point Humidity Wind Precip. Elev Updated Type